Time;durP1;ratioP1;P1;durP2;ratioP2;P2;SDS_P1;SDS_P2;PMS_P1;PMS_P2;Temp;Humidity;BMP_temperature;BMP_pressure;BME280_temperature;BME280_humidity;BME280_pressure;Samples;Min_cycle;Max_cycle;Signal;HPM_P1;HPM_P2
2023/01/01 00:12:28;;;;;;;58.65;26.02;;;;;;;;;;6061859;23;20140;-71
2023/01/01 00:18:18;;;;;;;48.15;23.35;;;;;;;;;;6115496;23;20029;-72
2023/01/01 00:24:43;;;;;;;;;;;;;;;;;;;;;
2023/01/01 00:30:44;;;;;;;42.15;19.50;;;;;;;;;;6136609;23;20025;-71
2023/01/01 00:33:14;;;;;;;35.10;18.48;;;;;;;;;;6033636;23;20029;-71
2023/01/01 00:36:09;;;;;;;36.28;18.75;;;;;;;;;;6118766;23;20032;-71
2023/01/01 00:38:39;;;;;;;38.42;17.90;;;;;;;;;;6217316;23;20020;-71
2023/01/01 00:41:12;;;;;;;33.85;16.00;;;;;;;;;;6163301;23;20024;-71
2023/01/01 00:43:58;;;;;;;34.70;14.32;;;;;;;;;;6132050;23;20031;-72
2023/01/01 00:46:50;;;;;;;31.13;13.32;;;;;;;;;;6124802;23;20024;-72
2023/01/01 00:49:40;;;;;;;27.45;12.82;;;;;;;;;;6228491;22;20051;-69
2023/01/01 00:52:20;;;;;;;25.48;11.80;;;;;;;;;;6124938;23;20160;-70
2023/01/01 00:54:58;;;;;;;24.33;11.35;;;;;;;;;;6088483;23;20024;-71
2023/01/01 00:57:43;;;;;;;24.17;10.23;;;;;;;;;;6137327;23;20028;-71
2023/01/01 01:00:30;;;;;;;22.13;9.80;;;;;;;;;;6192965;22;20062;-71
2023/01/01 01:03:04;;;;;;;23.00;9.80;;;;;;;;;;6140908;23;20028;-70
2023/01/01 01:05:59;;;;;;;17.75;8.07;;;;;;;;;;6131124;23;20039;-71
2023/01/01 01:08:45;;;;;;;19.60;9.50;;;;;;;;;;6142470;23;20055;-71
2023/01/01 01:11:23;;;;;;;23.42;7.90;;;;;;;;;;6191274;22;20107;-71
2023/01/01 01:13:50;;;;;;;18.27;7.20;;;;;;;;;;6162428;23;20028;-71
2023/01/01 01:19:12;;;;;;;17.58;6.93;;;;;;;;;;6169210;22;20064;-71
2023/01/01 01:21:58;;;;;;;15.55;6.40;;;;;;;;;;6192584;22;20024;-71
2023/01/01 01:24:31;;;;;;;14.80;6.07;;;;;;;;;;6192840;22;20102;-71
2023/01/01 01:27:01;;;;;;;14.25;5.93;;;;;;;;;;6209143;22;20039;-71
2023/01/01 01:29:35;;;;;;;12.20;5.63;;;;;;;;;;6169577;23;20028;-71
2023/01/01 01:32:13;;;;;;;12.32;4.90;;;;;;;;;;6229715;23;20020;-71
2023/01/01 01:34:48;;;;;;;13.87;5.43;;;;;;;;;;6209079;22;20020;-71
2023/01/01 01:37:17;;;;;;;15.02;5.22;;;;;;;;;;6168012;22;20020;-72
2023/01/01 01:40:01;;;;;;;12.27;4.47;;;;;;;;;;6191127;23;20032;-71
2023/01/01 01:44:58;;;;;;;9.40;4.03;;;;;;;;;;6072603;23;20093;-71
2023/01/01 01:47:36;;;;;;;13.57;3.85;;;;;;;;;;6164971;22;20175;-71
2023/01/01 01:50:09;;;;;;;12.57;4.13;;;;;;;;;;6197962;22;20103;-71
2023/01/01 01:52:38;;;;;;;10.77;3.60;;;;;;;;;;6243057;22;20035;-72
2023/01/01 01:55:09;;;;;;;9.82;3.38;;;;;;;;;;6168872;22;20051;-71
2023/01/01 01:57:41;;;;;;;11.75;3.67;;;;;;;;;;6184915;22;20031;-72
2023/01/01 02:00:16;;;;;;;12.07;3.80;;;;;;;;;;6173432;22;20058;-71
2023/01/01 02:02:46;;;;;;;9.95;3.30;;;;;;;;;;6214338;23;20118;-71
2023/01/01 02:05:25;;;;;;;9.38;3.70;;;;;;;;;;6201334;22;20020;-72
2023/01/01 02:07:53;;;;;;;14.82;2.97;;;;;;;;;;6216034;23;20031;-72
2023/01/01 02:10:26;;;;;;;8.90;3.53;;;;;;;;;;6211225;23;20024;-71
2023/01/01 02:13:12;;;;;;;9.23;3.42;;;;;;;;;;6143563;22;20027;-71
2023/01/01 02:15:52;;;;;;;10.77;3.20;;;;;;;;;;6168786;23;20028;-71
2023/01/01 02:18:39;;;;;;;16.05;3.05;;;;;;;;;;6217615;22;20028;-71
2023/01/01 02:21:11;;;;;;;13.07;2.90;;;;;;;;;;6226757;23;20086;-71
2023/01/01 02:23:52;;;;;;;7.25;2.38;;;;;;;;;;6193428;22;20104;-71
2023/01/01 02:26:37;;;;;;;6.45;2.58;;;;;;;;;;6158258;22;20028;-71
2023/01/01 02:29:23;;;;;;;11.45;2.75;;;;;;;;;;6190772;22;20034;-71
2023/01/01 02:31:58;;;;;;;7.20;2.38;;;;;;;;;;6178540;22;20024;-71
2023/01/01 02:34:30;;;;;;;9.23;2.75;;;;;;;;;;6178324;22;20041;-71
2023/01/01 02:36:58;;;;;;;10.50;2.63;;;;;;;;;;6212540;23;20099;-71
2023/01/01 02:39:45;;;;;;;6.25;2.25;;;;;;;;;;6195569;22;20031;-71
2023/01/01 02:42:15;;;;;;;7.10;2.40;;;;;;;;;;6207411;23;20024;-71
2023/01/01 02:44:54;;;;;;;6.88;2.10;;;;;;;;;;6117360;23;20028;-71
2023/01/01 02:47:35;;;;;;;9.55;2.40;;;;;;;;;;6172099;22;20024;-71
2023/01/01 02:52:45;;;;;;;9.73;1.98;;;;;;;;;;6134711;22;20030;-71
2023/01/01 02:55:25;;;;;;;12.05;2.13;;;;;;;;;;6122922;22;20024;-71
2023/01/01 03:00:17;;;;;;;4.57;1.80;;;;;;;;;;6198050;23;20082;-70
2023/01/01 03:00:49;;;;;;;6.13;2.10;;;;;;;;;;6149910;23;20135;-71
2023/01/01 03:03:24;;;;;;;4.90;1.83;;;;;;;;;;6106166;23;20024;-71
2023/01/01 03:08:46;;;;;;;9.40;2.40;;;;;;;;;;6138949;23;20025;-71
2023/01/01 03:11:17;;;;;;;9.30;1.95;;;;;;;;;;6106430;23;20024;-72
2023/01/01 03:14:01;;;;;;;6.53;2.33;;;;;;;;;;6130434;23;20029;-71
2023/01/01 03:16:36;;;;;;;8.50;2.50;;;;;;;;;;6182723;23;20032;-71
2023/01/01 03:19:25;;;;;;;9.60;2.35;;;;;;;;;;6194770;23;20051;-71
2023/01/01 03:21:55;;;;;;;7.68;1.75;;;;;;;;;;6157187;23;20035;-71
2023/01/01 03:24:27;;;;;;;10.73;1.92;;;;;;;;;;6113290;23;20028;-71
2023/01/01 03:27:17;;;;;;;5.90;1.95;;;;;;;;;;6129918;23;20052;-71
2023/01/01 03:29:54;;;;;;;5.90;2.03;;;;;;;;;;6063882;23;20045;-71
2023/01/01 03:32:59;;;;;;;4.13;1.60;;;;;;;;;;6042545;23;20144;-71
2023/01/01 03:35:38;;;;;;;4.75;1.85;;;;;;;;;;6086470;23;20033;-71
2023/01/01 03:38:16;;;;;;;9.52;1.90;;;;;;;;;;6150173;23;20043;-71
2023/01/01 03:40:51;;;;;;;7.65;1.80;;;;;;;;;;6159573;23;20046;-71
2023/01/01 03:43:21;;;;;;;9.15;1.95;;;;;;;;;;6128062;23;20026;-71
2023/01/01 03:45:51;;;;;;;5.07;1.75;;;;;;;;;;6134074;23;20029;-71
2023/01/01 03:48:20;;;;;;;6.20;1.58;;;;;;;;;;6172577;23;20028;-71
2023/01/01 03:50:59;;;;;;;9.45;1.95;;;;;;;;;;6206848;23;20028;-71
2023/01/01 03:53:34;;;;;;;11.30;2.08;;;;;;;;;;6090499;23;20116;-71
2023/01/01 03:56:14;;;;;;;5.90;1.55;;;;;;;;;;6140721;23;20024;-71
2023/01/01 03:58:55;;;;;;;;;;;;;;;;;;;;;
2023/01/01 04:01:29;;;;;;;4.70;1.40;;;;;;;;;;6180946;23;20028;-71
2023/01/01 04:03:57;;;;;;;7.35;1.50;;;;;;;;;;6120994;23;20234;-71
2023/01/01 04:06:27;;;;;;;6.22;1.60;;;;;;;;;;6144036;23;20027;-71
2023/01/01 04:08:57;;;;;;;6.30;1.55;;;;;;;;;;6156350;23;20024;-71
2023/01/01 04:14:10;;;;;;;6.50;1.67;;;;;;;;;;6117172;23;20020;-70
2023/01/01 04:16:49;;;;;;;8.93;1.63;;;;;;;;;;6186620;23;20024;-71
2023/01/01 04:19:29;;;;;;;5.20;1.50;;;;;;;;;;6165789;23;20031;-71
2023/01/01 04:22:01;;;;;;;5.85;1.45;;;;;;;;;;6187112;23;20025;-71
2023/01/01 04:24:33;;;;;;;4.60;1.40;;;;;;;;;;6067217;23;20278;-71
2023/01/01 04:27:14;;;;;;;8.77;1.73;;;;;;;;;;6109916;23;20061;-71
2023/01/01 04:29:41;;;;;;;4.05;1.20;;;;;;;;;;6093994;23;20041;-71
2023/01/01 04:32:10;;;;;;;6.88;2.00;;;;;;;;;;6102470;23;20029;-71
2023/01/01 04:34:40;;;;;;;4.47;1.33;;;;;;;;;;6117153;23;20045;-71
2023/01/01 04:37:19;;;;;;;3.30;1.48;;;;;;;;;;6162772;23;20020;-71
2023/01/01 04:39:46;;;;;;;5.38;1.05;;;;;;;;;;6171241;23;20127;-71
2023/01/01 04:42:18;;;;;;;5.60;1.10;;;;;;;;;;6180446;23;20039;-70
2023/01/01 04:44:46;;;;;;;2.88;1.30;;;;;;;;;;6145304;23;20092;-71
2023/01/01 04:47:15;;;;;;;3.38;1.33;;;;;;;;;;6173218;23;20027;-72
2023/01/01 04:49:56;;;;;;;5.57;1.70;;;;;;;;;;6189121;23;20835;-72
2023/01/01 04:52:29;;;;;;;4.15;1.45;;;;;;;;;;6198804;22;20028;-71
2023/01/01 04:55:09;;;;;;;4.95;1.30;;;;;;;;;;6089214;23;20033;-71
2023/01/01 04:57:36;;;;;;;4.05;1.33;;;;;;;;;;6146457;22;20027;-70
2023/01/01 05:00:02;;;;;;;3.97;1.38;;;;;;;;;;6172171;23;20099;-71
2023/01/01 05:02:31;;;;;;;5.85;1.40;;;;;;;;;;6137910;23;20032;-70
2023/01/01 05:05:02;;;;;;;5.43;1.58;;;;;;;;;;6074458;22;20024;-71
2023/01/01 05:07:41;;;;;;;9.38;1.40;;;;;;;;;;6158236;23;20434;-71
2023/01/01 05:10:08;;;;;;;2.97;1.10;;;;;;;;;;6218581;22;20024;-71
2023/01/01 05:12:42;;;;;;;5.78;1.30;;;;;;;;;;6188968;23;20028;-71
2023/01/01 05:15:10;;;;;;;5.63;1.70;;;;;;;;;;6140745;22;20028;-71
2023/01/01 05:17:45;;;;;;;3.75;1.38;;;;;;;;;;6131035;23;21726;-71
2023/01/01 05:20:37;;;;;;;7.32;1.42;;;;;;;;;;6107354;23;20047;-71
2023/01/01 05:23:08;;;;;;;3.30;1.45;;;;;;;;;;6156659;23;20039;-71
2023/01/01 05:25:45;;;;;;;5.80;1.30;;;;;;;;;;6057115;23;20084;-71
2023/01/01 05:28:27;;;;;;;5.38;1.35;;;;;;;;;;6136810;23;20077;-71
2023/01/01 05:30:57;;;;;;;5.50;1.40;;;;;;;;;;6131225;23;20075;-71
2023/01/01 05:33:27;;;;;;;5.63;1.52;;;;;;;;;;6152626;23;20024;-71
2023/01/01 05:35:55;;;;;;;10.35;1.48;;;;;;;;;;6146684;23;20028;-71
2023/01/01 05:38:22;;;;;;;7.95;1.55;;;;;;;;;;6131021;23;20120;-71
2023/01/01 05:40:53;;;;;;;6.05;1.42;;;;;;;;;;6189486;23;20107;-71
2023/01/01 05:43:29;;;;;;;5.80;1.38;;;;;;;;;;6119498;23;20098;-71
2023/01/01 05:46:10;;;;;;;8.75;1.50;;;;;;;;;;6189686;22;20030;-71
2023/01/01 05:48:39;;;;;;;6.50;1.45;;;;;;;;;;6128102;23;20028;-71
2023/01/01 05:51:10;;;;;;;4.13;1.20;;;;;;;;;;6202453;23;20098;-70
2023/01/01 05:53:40;;;;;;;2.58;1.13;;;;;;;;;;6168486;22;20034;-71
2023/01/01 05:56:07;;;;;;;7.10;1.27;;;;;;;;;;6145192;23;20032;-71
2023/01/01 05:58:36;;;;;;;7.97;1.67;;;;;;;;;;6128302;23;20032;-70
2023/01/01 06:01:08;;;;;;;5.07;1.30;;;;;;;;;;6130321;23;20031;-71
2023/01/01 06:03:35;;;;;;;8.02;1.30;;;;;;;;;;6140146;23;20113;-71
2023/01/01 06:06:05;;;;;;;6.85;1.27;;;;;;;;;;6130975;23;20303;-71
2023/01/01 06:08:34;;;;;;;6.30;1.30;;;;;;;;;;6150320;23;20024;-71
2023/01/01 06:11:01;;;;;;;4.70;1.20;;;;;;;;;;6177360;22;20029;-71
2023/01/01 06:13:28;;;;;;;4.57;1.27;;;;;;;;;;6118677;23;20071;-71
2023/01/01 06:16:01;;;;;;;2.97;0.95;;;;;;;;;;6123129;23;20028;-71
2023/01/01 06:18:33;;;;;;;5.88;1.17;;;;;;;;;;6203411;22;20027;-71
2023/01/01 06:21:11;;;;;;;4.43;1.10;;;;;;;;;;6097576;23;20064;-71
2023/01/01 06:23:42;;;;;;;3.15;1.00;;;;;;;;;;6037675;23;20217;-70
2023/01/01 06:26:13;;;;;;;3.17;1.10;;;;;;;;;;6043350;23;20022;-71
2023/01/01 06:28:43;;;;;;;2.30;0.80;;;;;;;;;;6056102;23;20035;-71
2023/01/01 06:31:20;;;;;;;4.20;0.90;;;;;;;;;;6124442;23;20288;-71
2023/01/01 06:33:47;;;;;;;2.83;0.75;;;;;;;;;;6152359;23;20024;-71
2023/01/01 06:36:17;;;;;;;3.10;0.93;;;;;;;;;;6119511;23;20024;-70
2023/01/01 06:38:53;;;;;;;5.25;1.15;;;;;;;;;;6174009;23;20028;-71
2023/01/01 06:41:22;;;;;;;4.15;1.00;;;;;;;;;;6170449;23;20028;-70
2023/01/01 06:43:49;;;;;;;3.10;0.77;;;;;;;;;;6225215;23;20031;-72
2023/01/01 06:46:18;;;;;;;4.93;1.10;;;;;;;;;;6167527;23;20087;-70
2023/01/01 06:48:45;;;;;;;6.43;0.98;;;;;;;;;;6211614;23;20028;-70
2023/01/01 06:51:18;;;;;;;2.53;0.90;;;;;;;;;;6158672;23;20291;-71
2023/01/01 06:53:45;;;;;;;4.20;0.90;;;;;;;;;;6173208;23;20036;-70
2023/01/01 06:56:16;;;;;;;2.08;0.88;;;;;;;;;;6155813;23;20020;-72
2023/01/01 06:58:49;;;;;;;7.93;1.13;;;;;;;;;;6144999;23;20505;-71
2023/01/01 07:01:16;;;;;;;6.28;0.80;;;;;;;;;;6163913;23;20024;-71
2023/01/01 07:03:44;;;;;;;6.10;1.00;;;;;;;;;;6167580;23;20029;-71
2023/01/01 07:06:11;;;;;;;5.43;0.95;;;;;;;;;;6163279;23;20047;-70
2023/01/01 07:08:37;;;;;;;3.38;0.90;;;;;;;;;;6195939;23;20020;-70
2023/01/01 07:11:04;;;;;;;7.40;1.10;;;;;;;;;;6179934;23;20032;-71
2023/01/01 07:13:33;;;;;;;6.00;1.00;;;;;;;;;;6155994;23;20028;-72
2023/01/01 07:16:00;;;;;;;4.30;1.02;;;;;;;;;;6176211;23;20020;-70
2023/01/01 07:18:27;;;;;;;7.22;1.00;;;;;;;;;;6173991;23;20021;-70
2023/01/01 07:20:58;;;;;;;2.38;0.80;;;;;;;;;;6108572;23;20085;-71
2023/01/01 07:23:37;;;;;;;2.03;0.63;;;;;;;;;;6145061;23;20075;-72
2023/01/01 07:26:15;;;;;;;2.05;0.70;;;;;;;;;;6152253;23;20031;-72
2023/01/01 07:28:49;;;;;;;4.68;0.80;;;;;;;;;;6193775;23;20078;-71
2023/01/01 07:31:16;;;;;;;;;;;;;;;;;;6156370;23;20024;-72
2023/01/01 07:33:45;;;;;;;2.92;0.60;;;;;;;;;;6106401;23;19927;-71
2023/01/01 07:36:12;;;;;;;2.38;0.80;;;;;;;;;;6113480;23;20158;-72
2023/01/01 07:38:49;;;;;;;2.25;0.70;;;;;;;;;;6191967;23;20081;-71
2023/01/01 07:41:15;;;;;;;5.07;0.93;;;;;;;;;;6150817;23;20059;-71
2023/01/01 07:43:45;;;;;;;2.50;0.98;;;;;;;;;;6171748;23;20298;-71
2023/01/01 07:51:33;;;;;;;2.80;0.70;;;;;;;;;;5012397;27;20426;-72
2023/01/01 07:54:06;;;;;;;1.40;0.60;;;;;;;;;;4907214;28;20551;-73
2023/01/01 07:56:43;;;;;;;2.63;0.70;;;;;;;;;;4934717;28;20045;-73
2023/01/01 07:59:09;;;;;;;2.00;0.70;;;;;;;;;;5001431;28;20053;-72
2023/01/01 08:04:45;;;;;;;1.42;0.68;;;;;;;;;;4968016;28;20054;-73
2023/01/01 08:07:35;;;;;;;1.52;0.68;;;;;;;;;;4969430;28;20049;-73
2023/01/01 08:19:34;;;;;;;2.55;0.73;;;;;;;;;;5001082;27;20466;-72
2023/01/01 08:22:03;;;;;;;5.13;0.63;;;;;;;;;;4994768;28;20053;-72
2023/01/01 08:27:37;;;;;;;3.70;0.80;;;;;;;;;;4450613;27;16277907;-72
2023/01/01 08:30:20;;;;;;;2.47;0.73;;;;;;;;;;4965342;28;20050;-73
2023/01/01 08:33:05;;;;;;;6.38;0.63;;;;;;;;;;4924752;28;20077;-73
2023/01/01 08:35:41;;;;;;;2.08;0.63;;;;;;;;;;4896840;28;20047;-72
2023/01/01 08:41:19;;;;;;;3.03;0.88;;;;;;;;;;4902210;29;20138;-73
2023/01/01 08:43:57;;;;;;;3.45;0.70;;;;;;;;;;4922425;28;20096;-72
2023/01/01 08:46:46;;;;;;;2.70;0.88;;;;;;;;;;4890270;28;20118;-73
2023/01/01 08:49:37;;;;;;;3.50;0.70;;;;;;;;;;4903928;28;20102;-73
2023/01/01 08:52:20;;;;;;;2.90;0.80;;;;;;;;;;4884933;28;20098;-72
2023/01/01 08:54:50;;;;;;;4.28;0.88;;;;;;;;;;4910448;28;22218;-72
2023/01/01 08:57:20;;;;;;;4.68;1.10;;;;;;;;;;4924530;28;20046;-72
2023/01/01 08:59:59;;;;;;;4.95;0.90;;;;;;;;;;4936968;28;20121;-71
2023/01/01 09:02:36;;;;;;;1.63;0.82;;;;;;;;;;4975677;28;20056;-72
2023/01/01 09:07:52;;;;;;;8.52;1.42;;;;;;;;;;5039422;27;20517;-72
2023/01/01 09:10:23;;;;;;;6.00;1.00;;;;;;;;;;4987301;28;20045;-72
2023/01/01 09:23:46;;;;;;;2.08;0.70;;;;;;;;;;4901616;28;20035;-71
2023/01/01 09:26:14;;;;;;;2.08;0.75;;;;;;;;;;4895874;28;20070;-71
2023/01/01 09:28:44;;;;;;;;;;;;;;;;;;4964235;28;20058;-70
2023/01/01 09:31:18;;;;;;;2.03;0.80;;;;;;;;;;4967764;28;19933;-71
2023/01/01 09:33:50;;;;;;;3.95;0.90;;;;;;;;;;5009770;28;20064;-69
2023/01/01 09:36:26;;;;;;;4.18;0.90;;;;;;;;;;4993644;28;20041;-69
2023/01/01 09:38:56;;;;;;;3.67;0.88;;;;;;;;;;5003273;28;20084;-70
2023/01/01 09:41:27;;;;;;;5.15;0.82;;;;;;;;;;4980750;28;20049;-70
2023/01/01 09:44:03;;;;;;;7.13;0.98;;;;;;;;;;5017352;28;20125;-70
2023/01/01 09:46:35;;;;;;;2.83;1.00;;;;;;;;;;4989952;28;20145;-70
2023/01/01 09:49:06;;;;;;;3.17;1.00;;;;;;;;;;4962495;28;20058;-70
2023/01/01 09:51:38;;;;;;;5.15;1.08;;;;;;;;;;4969019;28;20124;-71
2023/01/01 09:54:11;;;;;;;5.00;1.27;;;;;;;;;;4993338;28;20132;-71
2023/01/01 09:59:50;;;;;;;4.85;0.93;;;;;;;;;;4856146;28;20521;-73
2023/01/01 10:02:30;;;;;;;3.53;0.90;;;;;;;;;;4895284;28;20050;-73
2023/01/01 10:05:11;;;;;;;6.50;1.13;;;;;;;;;;4975701;28;20121;-71
2023/01/01 10:07:59;;;;;;;8.05;1.25;;;;;;;;;;4971133;28;20054;-71
2023/01/01 10:10:31;;;;;;;4.13;1.05;;;;;;;;;;4924248;28;20061;-70
2023/01/01 10:13:14;;;;;;;4.72;1.05;;;;;;;;;;4973201;28;20065;-71
2023/01/01 10:15:46;;;;;;;5.68;0.90;;;;;;;;;;4948341;28;20055;-71
2023/01/01 10:18:36;;;;;;;;;;;;;;;;;;;;;
2023/01/01 10:21:13;;;;;;;5.18;1.05;;;;;;;;;;4941440;28;20070;-70
2023/01/01 10:23:48;;;;;;;3.05;0.75;;;;;;;;;;4949265;28;20064;-70
2023/01/01 10:26:23;;;;;;;4.10;1.08;;;;;;;;;;4945347;28;20047;-71
2023/01/01 10:28:56;;;;;;;6.03;1.05;;;;;;;;;;4963346;28;20062;-72
2023/01/01 10:31:28;;;;;;;5.15;1.30;;;;;;;;;;4931190;28;20058;-70
2023/01/01 10:34:00;;;;;;;5.32;1.00;;;;;;;;;;4950822;28;20057;-72
2023/01/01 10:36:34;;;;;;;3.38;0.80;;;;;;;;;;4926938;28;20053;-70
2023/01/01 10:39:04;;;;;;;4.15;0.73;;;;;;;;;;4946202;28;20078;-71
2023/01/01 10:41:33;;;;;;;5.28;1.25;;;;;;;;;;4914373;28;20061;-72
2023/01/01 10:43:59;;;;;;;;;;;;;;;;;;4945280;28;20146;-71
2023/01/01 10:46:30;;;;;;;5.80;1.10;;;;;;;;;;4934474;28;19926;-72
2023/01/01 10:49:04;;;;;;;4.00;1.27;;;;;;;;;;4931494;28;20126;-71
2023/01/01 10:51:40;;;;;;;5.43;1.15;;;;;;;;;;4895060;29;20051;-71
2023/01/01 10:54:26;;;;;;;5.03;1.05;;;;;;;;;;4899126;28;20063;-72
2023/01/01 10:56:59;;;;;;;3.42;1.20;;;;;;;;;;4921344;28;20074;-71
2023/01/01 11:02:28;;;;;;;5.95;1.20;;;;;;;;;;4902265;28;20054;-72
2023/01/01 11:05:13;;;;;;;9.10;1.42;;;;;;;;;;4929595;28;20113;-73
2023/01/01 11:07:59;;;;;;;5.80;1.25;;;;;;;;;;4927056;28;20424;-72
2023/01/01 11:10:30;;;;;;;3.75;1.00;;;;;;;;;;4913691;28;20124;-72
2023/01/01 11:13:18;;;;;;;5.83;1.20;;;;;;;;;;4935947;28;20141;-72
2023/01/01 11:15:45;;;;;;;6.70;1.15;;;;;;;;;;4932820;28;20610;-73
2023/01/01 11:21:29;;;;;;;5.93;1.25;;;;;;;;;;4829280;29;20076;-70
2023/01/01 11:24:17;;;;;;;4.68;0.90;;;;;;;;;;4903242;29;20062;-71
2023/01/01 11:30:15;;;;;;;5.43;1.00;;;;;;;;;;4912190;28;20138;-70
2023/01/01 11:32:56;;;;;;;9.05;1.27;;;;;;;;;;4890602;28;20210;-72
2023/01/01 11:35:23;;;;;;;3.63;1.20;;;;;;;;;;4939297;28;20074;-70
2023/01/01 11:37:59;;;;;;;5.57;1.10;;;;;;;;;;4942164;28;20054;-72
2023/01/01 11:40:37;;;;;;;5.35;1.17;;;;;;;;;;4907870;28;20046;-71
2023/01/01 11:43:18;;;;;;;3.63;0.95;;;;;;;;;;4913979;28;20054;-70
2023/01/01 11:45:49;;;;;;;3.72;1.13;;;;;;;;;;4967189;28;20057;-72
2023/01/01 11:48:29;;;;;;;6.13;1.08;;;;;;;;;;4935510;28;20058;-71
2023/01/01 11:51:04;;;;;;;8.95;1.02;;;;;;;;;;4913988;28;20058;-72
2023/01/01 11:53:36;;;;;;;5.78;1.20;;;;;;;;;;4939382;28;20061;-71
2023/01/01 11:56:10;;;;;;;4.07;1.20;;;;;;;;;;4938994;28;20263;-71
2023/01/01 11:58:42;;;;;;;5.05;1.20;;;;;;;;;;4930957;28;20125;-70
2023/01/01 12:01:19;;;;;;;3.72;1.27;;;;;;;;;;4911112;28;20078;-73
2023/01/01 12:03:57;;;;;;;6.10;1.42;;;;;;;;;;4929552;28;20052;-72
2023/01/01 12:06:29;;;;;;;2.28;1.02;;;;;;;;;;4904271;28;20457;-70
2023/01/01 12:09:13;;;;;;;2.45;1.05;;;;;;;;;;4929847;28;20054;-72
2023/01/01 12:11:44;;;;;;;6.30;1.20;;;;;;;;;;4920157;28;20146;-71
2023/01/01 12:14:17;;;;;;;5.22;1.50;;;;;;;;;;4944035;28;20059;-71
2023/01/01 12:16:56;;;;;;;6.15;1.40;;;;;;;;;;4959127;28;20050;-70
2023/01/01 12:19:33;;;;;;;7.63;1.88;;;;;;;;;;4924282;28;20054;-69
2023/01/01 12:22:01;;;;;;;5.63;1.60;;;;;;;;;;4926728;28;20046;-72
2023/01/01 12:24:41;;;;;;;7.00;1.67;;;;;;;;;;4943603;28;20054;-71
2023/01/01 12:27:28;;;;;;;4.72;1.50;;;;;;;;;;4939401;28;20125;-70
2023/01/01 12:30:16;;;;;;;6.07;1.85;;;;;;;;;;4930403;28;20058;-71
2023/01/01 12:36:00;;;;;;;6.20;1.58;;;;;;;;;;4937446;28;20129;-71
2023/01/01 12:38:55;;;;;;;5.18;1.65;;;;;;;;;;4908760;28;20104;-71
2023/01/01 12:41:55;;;;;;;6.53;1.75;;;;;;;;;;4883656;28;20070;-71
2023/01/01 12:44:29;;;;;;;9.27;1.83;;;;;;;;;;4924734;28;20063;-71
2023/01/01 12:46:58;;;;;;;7.10;2.00;;;;;;;;;;4936261;28;21577;-73
2023/01/01 12:49:43;;;;;;;10.48;2.03;;;;;;;;;;4941474;28;20058;-71
2023/01/01 12:52:18;;;;;;;9.32;1.70;;;;;;;;;;4911405;28;20460;-71
2023/01/01 12:55:07;;;;;;;8.57;1.90;;;;;;;;;;4921422;28;20058;-72
2023/01/01 12:57:40;;;;;;;12.07;2.10;;;;;;;;;;4917003;29;20162;-72
2023/01/01 13:00:15;;;;;;;3.45;1.40;;;;;;;;;;4900926;28;20051;-72
2023/01/01 13:02:46;;;;;;;10.35;2.22;;;;;;;;;;4838186;29;20054;-72
2023/01/01 13:05:20;;;;;;;15.10;2.35;;;;;;;;;;4923071;28;20063;-72
2023/01/01 13:07:48;;;;;;;8.35;1.80;;;;;;;;;;4908656;28;20249;-70
2023/01/01 13:10:20;;;;;;;8.88;1.77;;;;;;;;;;4944066;28;20493;-71
2023/01/01 13:12:51;;;;;;;6.82;2.17;;;;;;;;;;4913088;29;20074;-72
2023/01/01 13:15:36;;;;;;;9.52;2.03;;;;;;;;;;4937358;28;20070;-71
2023/01/01 14:31:06;;;;;;;5.65;2.20;;;;;;;;;;6147673;22;20088;-77
2023/01/01 14:33:47;;;;;;;10.98;2.30;;;;;;;;;;6017080;23;20033;-73
2023/01/01 14:36:33;;;;;;;6.28;1.80;;;;;;;;;;6183246;22;20019;-75
2023/01/01 14:39:04;;;;;;;5.18;1.50;;;;;;;;;;6159943;23;20054;-75
2023/01/01 14:41:36;;;;;;;6.60;1.67;;;;;;;;;;6114471;23;20022;-74
2023/01/01 14:50:24;;;;;;;7.05;1.67;;;;;;;;;;4997804;28;20057;-73
2023/01/01 15:02:23;;;;;;;;;;;;;;;;;;;;;
2023/01/01 15:05:40;;;;;;;9.48;1.67;;;;;;;;;;4938867;28;20105;-71
2023/01/01 15:08:44;;;;;;;6.40;1.65;;;;;;;;;;4928932;28;20161;-74
2023/01/01 15:12:20;;;;;;;16.48;1.92;;;;;;;;;;4968215;28;20059;-75
2023/01/01 15:50:23;;;;;;;6.55;1.80;;;;;;;;;;4971590;28;1489587;-69
2023/01/01 15:52:53;;;;;;;5.63;1.55;;;;;;;;;;5001289;28;20077;-69
2023/01/01 15:55:25;;;;;;;5.88;1.70;;;;;;;;;;5014011;28;20052;-72
2023/01/01 16:00:40;;;;;;;5.25;1.70;;;;;;;;;;4995070;28;20053;-72
2023/01/01 16:03:23;;;;;;;6.93;1.60;;;;;;;;;;4983734;28;20068;-71
2023/01/01 16:05:54;;;;;;;8.23;1.55;;;;;;;;;;4969423;28;20081;-71
2023/01/01 16:08:31;;;;;;;5.53;1.20;;;;;;;;;;4963444;28;20041;-72
2023/01/01 16:10:57;;;;;;;4.55;1.48;;;;;;;;;;4939788;28;20051;-73
2023/01/01 16:13:24;;;;;;;4.93;1.60;;;;;;;;;;4976702;28;20246;-72
2023/01/01 16:15:58;;;;;;;4.68;1.80;;;;;;;;;;4999415;28;20524;-71
2023/01/01 16:18:28;;;;;;;6.45;1.50;;;;;;;;;;4997913;28;20056;-70
2023/01/01 16:20:56;;;;;;;5.82;1.92;;;;;;;;;;4966455;28;20105;-70
2023/01/01 16:23:23;;;;;;;4.68;1.52;;;;;;;;;;5025386;28;20062;-73
2023/01/01 16:25:50;;;;;;;8.82;1.70;;;;;;;;;;4970430;28;20046;-75
2023/01/01 16:28:23;;;;;;;9.48;1.88;;;;;;;;;;4952242;28;20093;-70
2023/01/01 16:30:53;;;;;;;4.45;1.80;;;;;;;;;;4948874;28;20057;-69
2023/01/01 16:33:23;;;;;;;4.78;1.35;;;;;;;;;;4985794;28;20064;-70
2023/01/01 16:35:49;;;;;;;5.30;1.42;;;;;;;;;;5014293;28;20052;-70
2023/01/01 16:38:20;;;;;;;8.02;1.70;;;;;;;;;;5050781;28;20100;-71
2023/01/01 16:40:46;;;;;;;5.75;1.60;;;;;;;;;;5014789;28;20053;-71
2023/01/01 16:43:15;;;;;;;5.38;1.42;;;;;;;;;;5032087;28;20148;-71
2023/01/01 16:45:41;;;;;;;5.78;1.52;;;;;;;;;;5031300;28;20080;-72
2023/01/01 16:48:08;;;;;;;3.35;1.20;;;;;;;;;;5006274;28;20056;-70
2023/01/01 16:50:36;;;;;;;9.25;1.77;;;;;;;;;;5007611;28;20056;-72
2023/01/01 16:53:06;;;;;;;5.45;1.80;;;;;;;;;;4936172;28;20046;-70
2023/01/01 16:55:39;;;;;;;5.68;1.70;;;;;;;;;;4961324;28;20053;-72
2023/01/01 16:58:06;;;;;;;4.85;1.50;;;;;;;;;;5005848;28;20244;-69
2023/01/01 17:00:36;;;;;;;6.30;1.80;;;;;;;;;;4975398;28;20070;-70
2023/01/01 17:03:06;;;;;;;7.22;1.60;;;;;;;;;;4974002;28;20059;-70
2023/01/01 17:05:35;;;;;;;6.38;1.65;;;;;;;;;;4986188;28;20238;-69
2023/01/01 17:08:03;;;;;;;8.95;2.10;;;;;;;;;;4893535;29;20055;-72
2023/01/01 17:13:50;;;;;;;4.22;1.77;;;;;;;;;;4964791;27;1447442;-71
2023/01/01 17:16:19;;;;;;;7.63;1.55;;;;;;;;;;4943594;28;20051;-71
2023/01/01 17:21:12;;;;;;;7.70;1.90;;;;;;;;;;4877278;28;20354;-72
2023/01/01 17:23:40;;;;;;;7.65;2.03;;;;;;;;;;4954317;28;20181;-71
2023/01/01 17:26:07;;;;;;;6.78;1.90;;;;;;;;;;5010046;28;20060;-70
2023/01/01 17:28:37;;;;;;;7.33;2.33;;;;;;;;;;5004113;28;20053;-71
2023/01/01 17:31:06;;;;;;;5.93;1.75;;;;;;;;;;4946930;28;20096;-72
2023/01/01 17:33:33;;;;;;;5.70;1.83;;;;;;;;;;4979671;28;20061;-72
2023/01/01 17:36:00;;;;;;;5.20;2.00;;;;;;;;;;4973305;28;20058;-71
2023/01/01 17:38:27;;;;;;;7.93;2.00;;;;;;;;;;4982295;28;20064;-72
2023/01/01 17:41:01;;;;;;;8.80;1.77;;;;;;;;;;4993574;28;20088;-73
2023/01/01 17:43:32;;;;;;;4.93;1.80;;;;;;;;;;4904418;28;20073;-70
2023/01/01 17:46:02;;;;;;;7.35;2.00;;;;;;;;;;4976728;28;20062;-71
2023/01/01 17:48:30;;;;;;;4.88;1.50;;;;;;;;;;4915715;28;20050;-74
2023/01/01 17:50:57;;;;;;;9.45;2.17;;;;;;;;;;4938498;28;20053;-73
2023/01/01 17:53:24;;;;;;;8.70;2.05;;;;;;;;;;4926160;28;20054;-72
2023/01/01 17:55:50;;;;;;;10.57;2.20;;;;;;;;;;4969398;28;20069;-72
2023/01/01 17:58:17;;;;;;;6.55;2.10;;;;;;;;;;4986979;28;20100;-72
2023/01/01 18:00:44;;;;;;;5.57;1.83;;;;;;;;;;4999324;28;20124;-72
2023/01/01 18:03:11;;;;;;;9.48;2.17;;;;;;;;;;4971426;28;21155;-74
2023/01/01 18:05:39;;;;;;;9.10;2.20;;;;;;;;;;4971603;28;20058;-70
2023/01/01 18:08:07;;;;;;;4.75;1.70;;;;;;;;;;5004654;28;20088;-75
2023/01/01 18:10:34;;;;;;;8.10;2.10;;;;;;;;;;4973364;28;20053;-71
2023/01/01 18:13:01;;;;;;;9.85;1.83;;;;;;;;;;4981418;28;20052;-75
2023/01/01 18:15:30;;;;;;;13.75;2.70;;;;;;;;;;4978782;28;20049;-72
2023/01/01 18:17:57;;;;;;;7.43;1.95;;;;;;;;;;5027783;28;20057;-74
2023/01/01 18:20:23;;;;;;;8.10;2.20;;;;;;;;;;4985893;28;20084;-74
2023/01/01 18:22:55;;;;;;;6.90;2.00;;;;;;;;;;4949787;28;20063;-72
2023/01/01 18:25:21;;;;;;;7.57;1.80;;;;;;;;;;4928946;28;20063;-75
2023/01/01 18:27:48;;;;;;;10.25;1.80;;;;;;;;;;4975137;28;20057;-72
2023/01/01 18:30:15;;;;;;;6.93;2.20;;;;;;;;;;4951857;28;20061;-75
2023/01/01 18:32:49;;;;;;;6.13;2.08;;;;;;;;;;4929338;28;20045;-75
2023/01/01 18:35:16;;;;;;;9.07;2.40;;;;;;;;;;4938045;28;20061;-73
2023/01/01 18:37:44;;;;;;;7.38;1.92;;;;;;;;;;4971856;28;20053;-74
2023/01/01 18:40:14;;;;;;;7.72;1.77;;;;;;;;;;4933148;28;20049;-73
2023/01/01 18:42:52;;;;;;;11.07;2.15;;;;;;;;;;4938316;28;20060;-72
2023/01/01 18:45:21;;;;;;;5.07;1.70;;;;;;;;;;4983605;28;20049;-76
2023/01/01 18:47:48;;;;;;;;;;;;;;;;;;4964845;28;20144;-73
2023/01/01 18:50:15;;;;;;;5.88;1.98;;;;;;;;;;4987701;28;19924;-74
2023/01/01 18:52:42;;;;;;;6.43;1.90;;;;;;;;;;4959058;28;20102;-72
2023/01/01 18:55:12;;;;;;;7.78;1.73;;;;;;;;;;4961846;28;20125;-73
2023/01/01 18:57:41;;;;;;;4.38;1.88;;;;;;;;;;4960559;28;20093;-76
2023/01/01 19:00:15;;;;;;;5.72;2.20;;;;;;;;;;4980266;28;20077;-71
2023/01/01 19:05:16;;;;;;;5.07;1.73;;;;;;;;;;4877884;28;20065;-72
2023/01/01 19:07:44;;;;;;;5.82;1.83;;;;;;;;;;4961086;28;20053;-73
2023/01/01 19:10:12;;;;;;;7.05;2.33;;;;;;;;;;4983983;28;20049;-71